createdAt,value
2018-11-05T00:00:54.260Z,0.00
2018-11-05T00:02:47.351Z,0.00
2018-11-05T00:03:47.331Z,0.00
2018-11-05T00:05:40.432Z,0.00
2018-11-05T00:06:40.391Z,0.00
2018-11-05T00:08:33.483Z,0.00
2018-11-05T00:09:33.511Z,0.00
2018-11-05T00:11:26.562Z,0.00
2018-11-05T00:12:26.526Z,0.00
2018-11-05T00:14:19.632Z,0.00
2018-11-05T00:15:19.594Z,0.00
2018-11-05T00:17:12.688Z,0.00
2018-11-05T00:18:12.656Z,0.00
2018-11-05T00:20:05.741Z,0.00
2018-11-05T00:21:05.716Z,0.00
2018-11-05T00:22:58.817Z,0.00
2018-11-05T00:23:58.779Z,0.00
2018-11-05T00:25:51.878Z,0.00
2018-11-05T00:26:51.859Z,0.00
2018-11-05T00:28:44.958Z,0.00
2018-11-05T00:29:44.920Z,0.00
2018-11-05T00:31:38.015Z,0.00
2018-11-05T00:32:38.012Z,0.00
2018-11-05T00:34:31.093Z,0.00
2018-11-05T00:35:31.052Z,0.00
2018-11-05T00:37:24.188Z,0.00
2018-11-05T00:38:24.158Z,0.00
2018-11-05T00:40:17.266Z,0.00
2018-11-05T00:41:17.232Z,0.00
2018-11-05T00:43:10.342Z,0.00
2018-11-05T00:44:10.336Z,0.00
2018-11-05T00:46:03.422Z,0.00
2018-11-05T00:47:03.382Z,0.00
2018-11-05T00:48:56.469Z,0.00
2018-11-05T00:49:56.463Z,0.00
2018-11-05T00:51:49.564Z,0.00
2018-11-05T00:52:49.532Z,0.00
2018-11-05T00:54:42.612Z,0.00
2018-11-05T00:55:42.596Z,0.00
2018-11-05T00:57:35.688Z,0.00
2018-11-05T00:58:35.652Z,0.00
2018-11-05T01:00:28.738Z,0.00
2018-11-05T01:01:28.710Z,0.00
2018-11-05T01:03:21.819Z,0.00
2018-11-05T01:04:21.786Z,0.00
2018-11-05T01:06:14.892Z,0.00
2018-11-05T01:07:14.843Z,0.00
2018-11-05T01:09:07.946Z,0.00
2018-11-05T01:10:07.909Z,0.00
2018-11-05T01:12:00.997Z,0.00
2018-11-05T01:13:00.972Z,0.00
2018-11-05T01:14:54.074Z,0.00
2018-11-05T01:15:54.139Z,0.00
2018-11-05T01:17:47.130Z,0.00
2018-11-05T01:18:47.104Z,0.00
2018-11-05T01:20:40.205Z,0.00
2018-11-05T01:21:40.170Z,0.00
2018-11-05T01:23:33.252Z,0.00
2018-11-05T01:24:33.229Z,0.00
2018-11-05T01:26:26.343Z,0.00
2018-11-05T01:27:26.293Z,0.00
2018-11-05T01:29:19.378Z,0.00
2018-11-05T01:30:19.352Z,0.00
2018-11-05T01:32:12.454Z,0.00
2018-11-05T01:33:12.416Z,0.00
2018-11-05T01:35:05.505Z,0.00
2018-11-05T01:36:05.487Z,0.00
2018-11-05T01:37:58.586Z,0.00
2018-11-05T01:38:58.554Z,0.00
2018-11-05T01:40:51.654Z,0.00
2018-11-05T01:41:51.618Z,0.00
2018-11-05T01:43:44.737Z,0.00
2018-11-05T01:44:44.691Z,0.00
2018-11-05T01:46:37.777Z,0.00
2018-11-05T01:47:37.760Z,0.00
2018-11-05T01:49:30.865Z,0.00
2018-11-05T01:50:30.823Z,0.00
2018-11-05T01:52:23.910Z,0.00
2018-11-05T01:53:23.884Z,0.00
2018-11-05T01:55:16.988Z,0.00
2018-11-05T01:56:16.970Z,0.00
2018-11-05T01:58:10.051Z,0.00
2018-11-05T01:59:10.027Z,0.00
2018-11-05T02:01:03.127Z,0.00
2018-11-05T02:02:03.092Z,0.00
2018-11-05T02:03:56.183Z,0.00
2018-11-05T02:04:56.160Z,0.00
2018-11-05T02:06:49.264Z,0.00
2018-11-05T02:07:49.231Z,0.00
2018-11-05T02:09:42.320Z,0.00
2018-11-05T02:10:42.292Z,0.00
2018-11-05T02:12:35.381Z,0.00
2018-11-05T02:13:35.356Z,0.00
2018-11-05T02:15:28.440Z,0.00
2018-11-05T02:16:28.416Z,0.00
2018-11-05T02:18:21.541Z,0.00
2018-11-05T02:19:21.483Z,0.00
2018-11-05T02:21:14.575Z,0.00
2018-11-05T02:22:14.575Z,0.00
2018-11-05T02:24:07.637Z,0.00
2018-11-05T02:25:07.608Z,0.00
2018-11-05T02:27:00.707Z,0.00
2018-11-05T02:28:00.724Z,0.00
2018-11-05T02:29:53.770Z,0.00
2018-11-05T02:30:53.736Z,0.00
2018-11-05T02:32:46.815Z,0.00
2018-11-05T02:33:46.793Z,0.00
2018-11-05T02:35:39.901Z,0.00
2018-11-05T02:36:39.866Z,0.00
2018-11-05T02:38:32.950Z,0.00
2018-11-05T02:39:32.965Z,0.00
2018-11-05T02:41:26.025Z,0.00
2018-11-05T02:42:25.991Z,0.00
2018-11-05T02:44:19.082Z,0.00
2018-11-05T02:45:19.073Z,0.00
2018-11-05T02:47:12.163Z,0.00
2018-11-05T02:48:12.124Z,0.00
2018-11-05T02:50:05.229Z,0.00
2018-11-05T02:51:05.201Z,0.00
2018-11-05T02:52:58.319Z,0.00
2018-11-05T02:53:58.283Z,0.00
2018-11-05T02:55:51.401Z,0.00
2018-11-05T02:56:51.380Z,0.00
2018-11-05T02:58:44.476Z,0.00
2018-11-05T02:59:44.435Z,0.00
2018-11-05T03:01:37.529Z,0.00
2018-11-05T03:02:37.504Z,0.00
2018-11-05T03:04:30.608Z,0.00
2018-11-05T03:05:30.577Z,0.00
2018-11-05T03:07:23.673Z,0.00
2018-11-05T03:08:23.648Z,0.00
2018-11-05T03:10:16.740Z,0.00
2018-11-05T03:11:16.717Z,0.00
2018-11-05T03:13:09.809Z,0.00
2018-11-05T03:14:09.771Z,0.00
2018-11-05T03:16:02.869Z,0.00
2018-11-05T03:17:02.843Z,0.00
2018-11-05T03:18:55.914Z,0.00
2018-11-05T03:19:55.910Z,0.00
2018-11-05T03:21:48.990Z,0.00
2018-11-05T03:22:48.953Z,0.00
2018-11-05T03:24:42.061Z,0.00
2018-11-05T03:25:42.037Z,0.00
2018-11-05T03:27:35.139Z,0.00
2018-11-05T03:28:35.103Z,0.00
2018-11-05T03:30:28.208Z,0.00
2018-11-05T03:31:28.166Z,0.00
2018-11-05T03:33:21.278Z,0.00
2018-11-05T03:34:21.244Z,0.00
2018-11-05T03:36:14.316Z,0.00
2018-11-05T03:37:14.293Z,0.00
2018-11-05T03:39:07.387Z,0.00
2018-11-05T03:40:07.353Z,0.00
2018-11-05T03:42:00.441Z,0.00
2018-11-05T03:43:00.415Z,0.00
2018-11-05T03:44:53.522Z,0.00
2018-11-05T03:45:53.485Z,0.00
2018-11-05T03:47:46.571Z,0.00
2018-11-05T03:48:46.546Z,0.00
2018-11-05T03:50:39.651Z,0.00
2018-11-05T03:51:39.613Z,0.00
2018-11-05T03:53:32.687Z,0.00
2018-11-05T03:54:32.671Z,0.00
2018-11-05T03:56:25.815Z,0.00
2018-11-05T03:57:25.725Z,0.00
2018-11-05T03:59:18.812Z,0.00
2018-11-05T04:00:18.788Z,0.00
2018-11-05T04:02:11.892Z,0.00
2018-11-05T04:03:11.879Z,0.00
2018-11-05T04:05:04.934Z,0.00
2018-11-05T04:06:04.918Z,0.00
2018-11-05T04:07:58.007Z,0.00
2018-11-05T04:08:57.977Z,0.00
2018-11-05T04:10:51.058Z,0.00
2018-11-05T04:11:51.033Z,0.00
2018-11-05T04:13:44.122Z,0.00
2018-11-05T04:14:44.090Z,0.00
2018-11-05T04:16:37.173Z,0.00
2018-11-05T04:17:37.152Z,0.00
2018-11-05T04:19:30.244Z,0.00
2018-11-05T04:20:30.208Z,0.00
2018-11-05T04:22:23.301Z,0.00
2018-11-05T04:23:23.272Z,0.00
2018-11-05T04:25:16.370Z,0.00
2018-11-05T04:26:16.331Z,0.00
2018-11-05T04:28:09.437Z,0.00
2018-11-05T04:29:09.395Z,0.00
2018-11-05T04:31:02.482Z,0.00
2018-11-05T04:32:02.462Z,0.00
2018-11-05T04:33:55.550Z,0.00
2018-11-05T04:34:55.519Z,0.00
2018-11-05T04:36:48.601Z,0.00
2018-11-05T04:37:48.606Z,0.00
2018-11-05T04:39:41.678Z,0.00
2018-11-05T04:40:41.644Z,0.00
2018-11-05T04:42:34.722Z,0.00
2018-11-05T04:43:34.700Z,0.00
2018-11-05T04:45:27.792Z,0.00
2018-11-05T04:46:27.754Z,0.00
2018-11-05T04:48:20.841Z,0.00
2018-11-05T04:49:20.812Z,0.00
2018-11-05T04:51:13.904Z,0.00
2018-11-05T04:52:13.868Z,0.00
2018-11-05T04:54:06.950Z,0.00
2018-11-05T04:55:06.925Z,0.00
2018-11-05T04:57:00.028Z,0.00
2018-11-05T04:57:59.991Z,0.00
2018-11-05T04:59:53.085Z,0.00
2018-11-05T05:00:53.053Z,0.00
2018-11-05T05:02:46.147Z,0.00
2018-11-05T05:03:46.104Z,0.00
2018-11-05T05:05:39.196Z,0.00
2018-11-05T05:06:39.170Z,0.00
2018-11-05T05:08:32.286Z,0.00
2018-11-05T05:09:32.256Z,0.00
2018-11-05T05:11:25.336Z,0.00
2018-11-05T05:12:25.320Z,0.00
2018-11-05T05:14:18.416Z,0.00
2018-11-05T05:15:18.379Z,0.00
2018-11-05T05:17:11.468Z,0.00
2018-11-05T05:18:11.443Z,0.00
2018-11-05T05:20:04.538Z,0.00
2018-11-05T05:21:04.502Z,0.00
2018-11-05T05:22:57.844Z,0.00
2018-11-05T05:23:57.569Z,0.00
2018-11-05T05:25:50.674Z,0.00
2018-11-05T05:26:50.653Z,0.00
2018-11-05T05:28:43.732Z,0.00
2018-11-05T05:29:43.707Z,0.00
2018-11-05T05:31:36.799Z,0.00
2018-11-05T05:32:36.764Z,0.00
2018-11-05T05:34:29.848Z,0.00
2018-11-05T05:35:29.825Z,0.00
2018-11-05T05:37:22.912Z,0.00
2018-11-05T05:38:22.881Z,0.00
2018-11-05T05:40:15.999Z,0.00
2018-11-05T05:41:15.996Z,0.00
2018-11-05T05:43:09.031Z,0.00
2018-11-05T05:44:09.013Z,0.00
2018-11-05T05:46:02.084Z,0.00
2018-11-05T05:47:02.061Z,0.00
2018-11-05T05:48:56.006Z,0.00
2018-11-05T05:49:56.026Z,0.00
2018-11-05T05:51:49.120Z,0.00
2018-11-05T05:52:49.059Z,0.00
2018-11-05T05:54:42.157Z,0.00
2018-11-05T05:55:42.156Z,0.00
2018-11-05T05:57:35.212Z,0.00
2018-11-05T05:58:35.191Z,0.00
2018-11-05T06:00:28.353Z,0.00
2018-11-05T06:01:28.275Z,0.00
2018-11-05T06:03:21.350Z,0.00
2018-11-05T06:04:21.329Z,0.00
2018-11-05T06:06:14.618Z,0.00
2018-11-05T06:07:14.389Z,0.00
2018-11-05T06:09:07.471Z,0.00
2018-11-05T06:10:07.447Z,0.00
2018-11-05T06:12:00.543Z,0.00
2018-11-05T06:13:00.508Z,0.00
2018-11-05T06:14:53.589Z,0.00
2018-11-05T06:15:53.676Z,0.00
2018-11-05T06:17:46.661Z,0.00
2018-11-05T06:18:46.629Z,0.00
2018-11-05T06:20:39.707Z,0.00
2018-11-05T06:21:39.717Z,0.00
2018-11-05T06:23:32.774Z,0.00
2018-11-05T06:24:32.747Z,0.00
2018-11-05T06:26:25.837Z,0.00
2018-11-05T06:27:25.811Z,0.00
2018-11-05T06:29:18.918Z,0.00
2018-11-05T06:30:18.879Z,0.00
2018-11-05T06:32:11.965Z,0.00
2018-11-05T06:33:11.936Z,0.00
2018-11-05T06:35:05.115Z,0.00
2018-11-05T06:36:05.021Z,0.00
2018-11-05T06:37:58.096Z,0.00
2018-11-05T06:38:58.074Z,5.63
2018-11-05T06:40:51.172Z,5.63
2018-11-05T06:41:51.198Z,5.63
2018-11-05T06:43:44.219Z,5.63
2018-11-05T06:44:44.227Z,5.63
2018-11-05T06:46:37.300Z,5.63
2018-11-05T06:47:37.266Z,5.63
2018-11-05T06:49:30.352Z,5.63
2018-11-05T06:50:30.330Z,5.63
2018-11-05T06:52:23.428Z,5.63
2018-11-05T06:53:23.392Z,5.63
2018-11-05T06:55:16.475Z,5.63
2018-11-05T06:56:16.458Z,5.63
2018-11-05T06:58:09.548Z,11.25
2018-11-05T06:59:09.514Z,11.25
2018-11-05T07:01:02.597Z,11.25
2018-11-05T07:02:02.574Z,11.25
2018-11-05T07:03:55.669Z,11.25
2018-11-05T07:04:55.655Z,11.25
2018-11-05T07:06:48.747Z,11.25
2018-11-05T07:07:48.695Z,11.25
2018-11-05T07:09:41.824Z,11.25
2018-11-05T07:10:41.755Z,11.25
2018-11-05T07:12:34.844Z,11.25
2018-11-05T07:13:34.811Z,16.88
2018-11-05T07:15:27.933Z,16.88
2018-11-05T07:16:27.898Z,22.50
2018-11-05T07:18:21.014Z,22.50
2018-11-05T07:19:20.983Z,28.13
2018-11-05T07:21:14.068Z,28.13
2018-11-05T07:22:14.022Z,28.13
2018-11-05T07:24:07.120Z,28.13
2018-11-05T07:25:07.088Z,28.13
2018-11-05T07:27:00.182Z,28.13
2018-11-05T07:28:00.147Z,28.13
2018-11-05T07:29:53.245Z,33.75
2018-11-05T07:30:53.215Z,33.75
2018-11-05T07:32:46.305Z,33.75
2018-11-05T07:33:46.376Z,33.75
2018-11-05T07:35:39.355Z,33.75
2018-11-05T07:36:39.335Z,33.75
2018-11-05T07:38:32.443Z,33.75
2018-11-05T07:39:32.414Z,33.75
2018-11-05T07:41:25.499Z,39.38
2018-11-05T07:42:25.468Z,39.38
2018-11-05T07:44:18.572Z,33.75
2018-11-05T07:45:18.535Z,33.75
2018-11-05T07:47:11.618Z,33.75
2018-11-05T07:48:11.605Z,33.75
2018-11-05T07:50:04.711Z,39.38
2018-11-05T07:51:04.668Z,39.38
2018-11-05T07:52:57.773Z,39.38
2018-11-05T07:53:57.746Z,33.75
2018-11-05T07:55:50.856Z,33.75
2018-11-05T07:56:50.828Z,33.75
2018-11-05T07:58:43.902Z,33.75
2018-11-05T07:59:43.884Z,33.75
2018-11-05T08:01:36.985Z,39.38
2018-11-05T08:02:36.997Z,33.75
2018-11-05T08:04:30.029Z,33.75
2018-11-05T08:05:30.033Z,33.75
2018-11-05T08:07:23.150Z,28.13
2018-11-05T08:08:23.155Z,28.13
2018-11-05T08:10:16.182Z,39.38
2018-11-05T08:11:16.164Z,45.00
2018-11-05T08:13:09.261Z,45.00
2018-11-05T08:14:09.263Z,45.00
2018-11-05T08:16:02.320Z,45.00
2018-11-05T08:17:02.293Z,39.38
2018-11-05T08:18:55.380Z,33.75
2018-11-05T08:19:55.414Z,33.75
2018-11-05T08:21:48.454Z,28.13
2018-11-05T08:22:48.422Z,22.50
2018-11-05T08:24:41.516Z,22.50
2018-11-05T08:25:41.491Z,28.13
2018-11-05T08:27:34.591Z,16.88
2018-11-05T08:28:34.557Z,16.88
2018-11-05T08:30:27.642Z,22.50
2018-11-05T08:31:27.621Z,22.50
2018-11-05T08:33:20.717Z,22.50
2018-11-05T08:34:20.737Z,28.13
2018-11-05T08:36:13.766Z,28.13
2018-11-05T08:37:13.746Z,28.13
2018-11-05T08:39:06.845Z,28.13
2018-11-05T08:40:06.836Z,28.13
2018-11-05T08:41:59.927Z,33.75
2018-11-05T08:42:59.892Z,39.38
2018-11-05T08:44:53.001Z,39.38
2018-11-05T08:45:52.963Z,33.75
2018-11-05T08:47:46.052Z,33.75
2018-11-05T08:48:46.030Z,39.38
2018-11-05T08:50:39.142Z,45.00
2018-11-05T08:51:39.220Z,45.00
2018-11-05T08:53:32.189Z,45.00
2018-11-05T08:54:32.172Z,50.63
2018-11-05T08:56:25.265Z,50.63
2018-11-05T08:57:25.287Z,56.25
2018-11-05T08:59:18.325Z,61.88
2018-11-05T09:00:18.299Z,56.25
2018-11-05T09:02:11.403Z,50.63
2018-11-05T09:03:11.371Z,50.63
2018-11-05T09:05:04.536Z,45.00
2018-11-05T09:06:04.448Z,45.00
2018-11-05T09:07:57.549Z,45.00
2018-11-05T09:08:57.512Z,45.00
2018-11-05T09:10:50.978Z,45.00
2018-11-05T09:11:50.653Z,45.00
2018-11-05T09:13:43.681Z,45.00
2018-11-05T09:14:43.650Z,45.00
2018-11-05T09:16:36.736Z,45.00
2018-11-05T09:17:36.713Z,45.00
2018-11-05T09:19:29.818Z,45.00
2018-11-05T09:20:29.780Z,45.00
2018-11-05T09:22:22.876Z,50.63
2018-11-05T09:23:22.845Z,50.63
2018-11-05T09:25:15.952Z,50.63
2018-11-05T09:26:15.916Z,50.63
2018-11-05T09:28:09.024Z,45.00
2018-11-05T09:29:09.000Z,45.00
2018-11-05T09:31:02.107Z,45.00
2018-11-05T09:32:02.072Z,50.63
2018-11-05T09:33:55.172Z,56.25
2018-11-05T09:34:55.143Z,56.25
2018-11-05T09:36:48.255Z,50.63
2018-11-05T09:37:48.228Z,56.25
2018-11-05T09:39:41.311Z,56.25
2018-11-05T09:40:41.285Z,56.25
2018-11-05T09:42:34.443Z,50.63
2018-11-05T09:43:34.360Z,50.63
2018-11-05T09:45:27.447Z,50.63
2018-11-05T09:46:27.428Z,50.63
2018-11-05T09:48:20.525Z,56.25
2018-11-05T09:49:20.497Z,61.88
2018-11-05T09:51:13.589Z,56.25
2018-11-05T09:52:13.567Z,56.25
2018-11-05T09:54:06.663Z,56.25
2018-11-05T09:55:06.644Z,56.25
2018-11-05T09:56:59.768Z,56.25
2018-11-05T09:57:59.701Z,56.25
2018-11-05T09:59:52.807Z,61.88
2018-11-05T10:00:52.777Z,61.88
2018-11-05T10:02:45.917Z,61.88
2018-11-05T10:03:46.009Z,61.88
2018-11-05T10:05:39.061Z,61.88
2018-11-05T10:06:38.913Z,61.88
2018-11-05T10:08:32.006Z,61.88
2018-11-05T10:09:31.994Z,67.50
2018-11-05T10:11:25.091Z,67.50
2018-11-05T10:12:25.055Z,61.88
2018-11-05T10:14:18.153Z,56.25
2018-11-05T10:15:18.128Z,56.25
2018-11-05T10:17:11.237Z,61.88
2018-11-05T10:18:11.313Z,67.50
2018-11-05T10:20:04.302Z,73.13
2018-11-05T10:21:04.274Z,73.13
2018-11-05T10:22:57.383Z,73.13
2018-11-05T10:23:57.348Z,78.75
2018-11-05T10:25:50.462Z,78.75
2018-11-05T10:26:50.422Z,84.38
2018-11-05T10:28:43.524Z,78.75
2018-11-05T10:29:43.493Z,61.88
2018-11-05T10:31:36.588Z,61.88
2018-11-05T10:32:36.601Z,56.25
2018-11-05T10:34:29.671Z,50.63
2018-11-05T10:35:29.631Z,50.63
2018-11-05T10:37:22.722Z,45.00
2018-11-05T10:38:22.701Z,45.00
2018-11-05T10:40:15.859Z,45.00
2018-11-05T10:41:15.788Z,45.00
2018-11-05T10:43:08.874Z,45.00
2018-11-05T10:44:08.878Z,50.63
2018-11-05T10:46:01.965Z,56.25
2018-11-05T10:47:01.922Z,56.25
2018-11-05T10:48:55.012Z,61.88
2018-11-05T10:49:54.988Z,61.88
2018-11-05T10:51:48.168Z,61.88
2018-11-05T10:52:48.065Z,56.25
2018-11-05T10:54:41.164Z,56.25
2018-11-05T10:55:41.142Z,56.25
2018-11-05T10:57:34.290Z,56.25
2018-11-05T10:58:34.205Z,61.88
2018-11-05T11:00:27.798Z,67.50
2018-11-05T11:01:27.779Z,67.50
2018-11-05T11:03:20.923Z,73.13
2018-11-05T11:04:20.868Z,67.50
2018-11-05T11:06:13.948Z,67.50
2018-11-05T11:07:13.924Z,67.50
2018-11-05T11:09:07.027Z,67.50
2018-11-05T11:10:06.990Z,61.88
2018-11-05T11:12:00.082Z,56.25
2018-11-05T11:13:00.068Z,56.25
2018-11-05T11:14:53.160Z,56.25
2018-11-05T11:15:53.135Z,56.25
2018-11-05T11:17:46.252Z,56.25
2018-11-05T11:18:46.216Z,56.25
2018-11-05T11:20:39.325Z,56.25
2018-11-05T11:21:39.278Z,61.88
2018-11-05T11:23:32.381Z,67.50
2018-11-05T11:24:32.358Z,73.13
2018-11-05T11:26:25.459Z,78.75
2018-11-05T11:27:25.432Z,78.75
2018-11-05T11:29:18.712Z,90.00
2018-11-05T11:30:18.544Z,84.38
2018-11-05T11:32:11.637Z,78.75
2018-11-05T11:33:11.597Z,90.00
2018-11-05T11:35:04.702Z,101.25
2018-11-05T11:36:04.665Z,112.50
2018-11-05T11:37:57.780Z,101.25
2018-11-05T11:38:57.758Z,101.25
2018-11-05T11:40:50.869Z,101.25
2018-11-05T11:41:50.848Z,106.88
2018-11-05T11:43:44.008Z,101.25
2018-11-05T11:44:43.930Z,101.25
2018-11-05T11:46:37.024Z,90.00
2018-11-05T11:47:36.992Z,90.00
2018-11-05T11:49:30.097Z,90.00
2018-11-05T11:50:30.088Z,84.38
2018-11-05T11:52:23.216Z,78.75
2018-11-05T11:53:23.172Z,50.63
2018-11-05T11:55:16.252Z,33.75
2018-11-05T11:56:16.231Z,39.38
2018-11-05T11:58:09.360Z,56.25
2018-11-05T11:59:09.312Z,61.88
2018-11-05T12:01:02.409Z,90.00
2018-11-05T12:02:02.395Z,73.13
2018-11-05T12:03:55.494Z,95.63
2018-11-05T12:04:55.517Z,95.63
2018-11-05T12:06:48.575Z,95.63
2018-11-05T12:07:48.558Z,106.88
2018-11-05T12:09:41.656Z,95.63
2018-11-05T12:10:41.629Z,95.63
2018-11-05T12:12:34.723Z,84.38
2018-11-05T12:13:34.702Z,84.38
2018-11-05T12:15:27.803Z,84.38
2018-11-05T12:16:27.811Z,84.38
2018-11-05T12:18:20.877Z,84.38
2018-11-05T12:19:20.852Z,84.38
2018-11-05T12:21:13.957Z,95.63
2018-11-05T12:22:13.922Z,95.63
2018-11-05T12:24:07.017Z,106.88
2018-11-05T12:25:07.092Z,106.88
2018-11-05T12:27:00.110Z,112.50
2018-11-05T12:28:00.076Z,112.50
2018-11-05T12:29:53.168Z,123.75
2018-11-05T12:30:53.154Z,140.63
2018-11-05T12:32:46.275Z,163.13
2018-11-05T12:33:46.270Z,157.50
2018-11-05T12:35:39.339Z,151.88
2018-11-05T12:36:39.325Z,151.88
2018-11-05T12:38:32.452Z,151.88
2018-11-05T12:39:32.396Z,151.88
2018-11-05T12:41:25.499Z,151.88
2018-11-05T12:42:25.481Z,151.88
2018-11-05T12:44:18.645Z,151.88
2018-11-05T12:45:18.562Z,146.25
2018-11-05T12:47:11.660Z,140.63
2018-11-05T12:48:11.644Z,140.63
2018-11-05T12:50:04.749Z,135.00
2018-11-05T12:51:04.830Z,135.00
2018-11-05T12:52:57.820Z,135.00
2018-11-05T12:53:57.807Z,135.00
2018-11-05T12:55:50.908Z,140.63
2018-11-05T12:56:50.887Z,140.63
2018-11-05T12:58:43.983Z,140.63
2018-11-05T12:59:43.963Z,140.63
2018-11-05T13:01:37.078Z,135.00
2018-11-05T13:02:37.050Z,135.00
2018-11-05T13:04:30.153Z,129.38
2018-11-05T13:05:30.138Z,123.75
2018-11-05T13:07:23.293Z,123.75
2018-11-05T13:08:23.222Z,123.75
2018-11-05T13:10:16.341Z,123.75
2018-11-05T13:11:16.305Z,118.13
2018-11-05T13:13:09.421Z,118.13
2018-11-05T13:14:09.386Z,118.13
2018-11-05T13:16:02.492Z,112.50
2018-11-05T13:17:02.478Z,106.88
2018-11-05T13:18:55.592Z,106.88
2018-11-05T13:19:55.554Z,106.88
2018-11-05T13:21:48.655Z,101.25
2018-11-05T13:22:48.713Z,95.63
2018-11-05T13:24:41.770Z,95.63
2018-11-05T13:25:41.737Z,90.00
2018-11-05T13:27:34.836Z,90.00
2018-11-05T13:28:34.865Z,84.38
2018-11-05T13:30:27.934Z,84.38
2018-11-05T13:31:27.905Z,78.75
2018-11-05T13:33:21.002Z,78.75
2018-11-05T13:34:20.984Z,78.75
2018-11-05T13:36:14.101Z,73.13
2018-11-05T13:37:14.320Z,73.13
2018-11-05T13:39:07.172Z,73.13
2018-11-05T13:40:07.169Z,73.13
2018-11-05T13:42:00.249Z,73.13
2018-11-05T13:43:00.219Z,73.13
2018-11-05T13:44:53.388Z,73.13
2018-11-05T13:45:53.623Z,67.50
2018-11-05T13:47:47.157Z,67.50
2018-11-05T13:48:47.050Z,67.50
2018-11-05T13:50:39.526Z,67.50
2018-11-05T13:51:39.503Z,67.50
2018-11-05T13:53:32.603Z,67.50
2018-11-05T13:54:32.643Z,67.50
2018-11-05T13:56:25.660Z,67.50
2018-11-05T13:57:25.648Z,67.50
2018-11-05T13:59:18.742Z,67.50
2018-11-05T14:00:18.727Z,67.50
2018-11-05T14:02:11.852Z,67.50
2018-11-05T14:03:11.786Z,67.50
2018-11-05T14:05:04.899Z,67.50
2018-11-05T14:06:04.861Z,61.88
2018-11-05T14:07:57.978Z,56.25
2018-11-05T14:08:57.936Z,56.25
2018-11-05T14:10:51.044Z,50.63
2018-11-05T14:11:51.007Z,50.63
2018-11-05T14:13:44.107Z,56.25
2018-11-05T14:14:44.088Z,56.25
2018-11-05T14:16:37.200Z,56.25
2018-11-05T14:17:37.158Z,56.25
2018-11-05T14:19:30.251Z,56.25
2018-11-05T14:20:30.226Z,56.25
2018-11-05T14:22:23.347Z,56.25
2018-11-05T14:23:23.305Z,56.25
2018-11-05T14:25:16.432Z,56.25
2018-11-05T14:26:16.499Z,56.25
2018-11-05T14:28:09.748Z,56.25
2018-11-05T14:29:09.899Z,50.63
2018-11-05T14:31:02.552Z,50.63
2018-11-05T14:32:02.600Z,50.63
2018-11-05T14:33:55.637Z,33.75
2018-11-05T14:34:55.609Z,33.75
2018-11-05T14:36:48.758Z,28.13
2018-11-05T14:37:48.676Z,28.13
2018-11-05T14:39:41.781Z,22.50
2018-11-05T14:40:41.749Z,22.50
2018-11-05T14:42:34.876Z,22.50
2018-11-05T14:43:34.884Z,22.50
2018-11-05T14:45:27.909Z,22.50
2018-11-05T14:46:27.890Z,22.50
2018-11-05T14:48:21.066Z,22.50
2018-11-05T14:49:20.954Z,22.50
2018-11-05T14:51:14.176Z,22.50
2018-11-05T14:52:14.017Z,22.50
2018-11-05T14:54:07.111Z,22.50
2018-11-05T14:55:07.088Z,22.50
2018-11-05T14:57:00.211Z,22.50
2018-11-05T14:58:00.160Z,22.50
2018-11-05T14:59:53.260Z,22.50
2018-11-05T15:00:53.238Z,22.50
2018-11-05T15:02:46.366Z,22.50
2018-11-05T15:03:46.308Z,22.50
2018-11-05T15:05:39.399Z,22.50
2018-11-05T15:06:39.373Z,22.50
2018-11-05T15:08:32.490Z,22.50
2018-11-05T15:09:32.450Z,22.50
2018-11-05T15:11:25.539Z,22.50
2018-11-05T15:12:25.523Z,22.50
2018-11-05T15:14:18.632Z,16.88
2018-11-05T15:15:18.585Z,16.88
2018-11-05T15:17:11.686Z,16.88
2018-11-05T15:18:11.800Z,16.88
2018-11-05T15:20:05.154Z,11.25
2018-11-05T15:21:04.772Z,16.88
2018-11-05T15:22:57.829Z,16.88
2018-11-05T15:23:57.807Z,16.88
2018-11-05T15:25:50.985Z,16.88
2018-11-05T15:26:51.033Z,11.25
2018-11-05T15:28:43.977Z,11.25
2018-11-05T15:29:43.948Z,11.25
2018-11-05T15:31:37.049Z,11.25
2018-11-05T15:32:37.017Z,11.25
2018-11-05T15:34:30.114Z,5.63
2018-11-05T15:35:30.106Z,5.63
2018-11-05T15:37:23.212Z,5.63
2018-11-05T15:38:23.171Z,5.63
2018-11-05T15:40:16.276Z,5.63
2018-11-05T15:41:16.257Z,5.63
2018-11-05T15:43:09.353Z,5.63
2018-11-05T15:44:09.337Z,5.63
2018-11-05T15:46:02.418Z,5.63
2018-11-05T15:47:02.399Z,5.63
2018-11-05T15:48:55.501Z,5.63
2018-11-05T15:49:55.469Z,5.63
2018-11-05T15:51:48.758Z,0.00
2018-11-05T15:52:48.924Z,0.00
2018-11-05T15:54:41.654Z,0.00
2018-11-05T15:55:41.620Z,0.00
2018-11-05T15:57:34.708Z,0.00
2018-11-05T15:58:34.686Z,0.00
2018-11-05T16:00:27.792Z,0.00
2018-11-05T16:01:27.756Z,0.00
2018-11-05T16:03:20.860Z,0.00
2018-11-05T16:04:20.849Z,0.00
2018-11-05T16:06:13.922Z,0.00
2018-11-05T16:07:13.889Z,0.00
2018-11-05T16:09:06.989Z,0.00
2018-11-05T16:10:06.966Z,0.00
2018-11-05T16:12:00.069Z,0.00
2018-11-05T16:13:00.034Z,0.00
2018-11-05T16:14:53.128Z,0.00
2018-11-05T16:15:53.098Z,0.00
2018-11-05T16:17:46.197Z,0.00
2018-11-05T16:18:46.187Z,0.00
2018-11-05T16:20:39.255Z,0.00
2018-11-05T16:21:39.236Z,0.00
2018-11-05T16:23:32.321Z,0.00
2018-11-05T16:24:32.436Z,0.00
2018-11-05T16:26:25.380Z,0.00
2018-11-05T16:27:25.357Z,0.00
2018-11-05T16:29:18.478Z,0.00
2018-11-05T16:30:18.492Z,0.00
2018-11-05T16:32:11.636Z,0.00
2018-11-05T16:33:11.517Z,0.00
2018-11-05T16:35:04.669Z,0.00
2018-11-05T16:36:04.586Z,0.00
2018-11-05T16:37:57.676Z,0.00
2018-11-05T16:38:57.654Z,0.00
2018-11-05T16:40:50.752Z,0.00
2018-11-05T16:41:50.774Z,0.00
2018-11-05T16:43:43.804Z,0.00
2018-11-05T16:44:43.784Z,0.00
2018-11-05T16:46:36.886Z,0.00
2018-11-05T16:47:36.851Z,0.00
2018-11-05T16:49:29.933Z,0.00
2018-11-05T16:50:29.913Z,0.00
2018-11-05T16:52:23.012Z,0.00
2018-11-05T16:53:22.973Z,0.00
2018-11-05T16:55:16.151Z,0.00
2018-11-05T16:56:16.040Z,0.00
2018-11-05T16:58:09.210Z,0.00
2018-11-05T16:59:09.108Z,0.00
2018-11-05T17:01:02.370Z,0.00
2018-11-05T17:02:02.618Z,0.00
2018-11-05T17:03:55.270Z,0.00
2018-11-05T17:04:55.246Z,0.00
2018-11-05T17:06:48.357Z,0.00
2018-11-05T17:07:48.318Z,0.00
2018-11-05T17:09:41.406Z,0.00
2018-11-05T17:10:41.384Z,0.00
2018-11-05T17:12:34.483Z,0.00
2018-11-05T17:13:34.616Z,0.00
2018-11-05T17:15:27.533Z,0.00
2018-11-05T17:16:27.511Z,0.00
2018-11-05T17:18:20.602Z,0.00
2018-11-05T17:19:20.653Z,0.00
2018-11-05T17:21:13.659Z,0.00
2018-11-05T17:22:13.666Z,0.00
2018-11-05T17:24:06.731Z,0.00
2018-11-05T17:25:06.701Z,0.00
2018-11-05T17:26:59.793Z,0.00
2018-11-05T17:27:59.764Z,0.00
2018-11-05T17:29:52.873Z,0.00
2018-11-05T17:30:52.826Z,0.00
2018-11-05T17:32:45.930Z,0.00
2018-11-05T17:33:45.953Z,0.00
2018-11-05T17:35:40.000Z,0.00
2018-11-05T17:36:39.966Z,0.00
2018-11-05T17:38:33.064Z,0.00
2018-11-05T17:39:33.045Z,0.00
2018-11-05T17:41:26.147Z,0.00
2018-11-05T17:42:26.114Z,0.00
2018-11-05T17:44:19.204Z,0.00
2018-11-05T17:45:19.181Z,0.00
2018-11-05T17:47:12.278Z,0.00
2018-11-05T17:48:12.332Z,0.00
2018-11-05T17:50:05.336Z,0.00
2018-11-05T17:51:05.320Z,0.00
2018-11-05T17:52:58.448Z,0.00
2018-11-05T17:53:58.408Z,0.00
2018-11-05T17:55:51.504Z,0.00
2018-11-05T17:56:51.503Z,0.00
2018-11-05T17:58:44.573Z,0.00
2018-11-05T17:59:44.542Z,0.00
2018-11-05T18:01:37.658Z,0.00
2018-11-05T18:02:37.616Z,0.00
2018-11-05T18:04:30.819Z,0.00
2018-11-05T18:05:30.682Z,0.00
2018-11-05T18:07:23.770Z,0.00
2018-11-05T18:08:23.741Z,0.00
2018-11-05T18:10:16.839Z,0.00
2018-11-05T18:11:16.812Z,0.00
2018-11-05T18:13:09.902Z,0.00
2018-11-05T18:14:09.878Z,0.00
2018-11-05T18:16:02.988Z,0.00
2018-11-05T18:17:02.959Z,0.00
2018-11-05T18:18:56.070Z,0.00
2018-11-05T18:19:56.041Z,0.00
2018-11-05T18:21:49.156Z,0.00
2018-11-05T18:22:49.118Z,0.00
2018-11-05T18:24:42.199Z,0.00
2018-11-05T18:25:42.176Z,0.00
2018-11-05T18:27:35.272Z,0.00
2018-11-05T18:28:35.247Z,0.00
2018-11-05T18:30:28.370Z,0.00
2018-11-05T18:31:28.306Z,0.00
2018-11-05T18:33:21.406Z,0.00
2018-11-05T18:34:21.381Z,0.00
2018-11-05T18:36:14.471Z,0.00
2018-11-05T18:37:14.447Z,0.00
2018-11-05T18:39:07.598Z,0.00
2018-11-05T18:40:07.631Z,0.00
2018-11-05T18:42:00.781Z,0.00
2018-11-05T18:43:00.744Z,0.00
2018-11-05T18:44:53.762Z,0.00
2018-11-05T18:45:53.719Z,0.00
2018-11-05T18:47:46.810Z,0.00
2018-11-05T18:48:46.789Z,0.00
2018-11-05T18:50:39.889Z,0.00
2018-11-05T18:51:39.897Z,0.00